sensor_id;sensor_type;location;lat;lon;timestamp;P1;durP1;ratioP1;P2;durP2;ratioP2
54428;SDS011;40337;52.978;6.310;2023-02-19T00:00:55;21.67;;;17.05;;
54428;SDS011;40337;52.978;6.310;2023-02-19T00:03:20;22.85;;;16.52;;
54428;SDS011;40337;52.978;6.310;2023-02-19T00:05:46;20.98;;;16.45;;
54428;SDS011;40337;52.978;6.310;2023-02-19T00:08:11;21.92;;;15.70;;
54428;SDS011;40337;52.978;6.310;2023-02-19T00:10:37;22.50;;;16.85;;
54428;SDS011;40337;52.978;6.310;2023-02-19T00:13:02;21.42;;;16.48;;
54428;SDS011;40337;52.978;6.310;2023-02-19T00:15:30;26.95;;;16.80;;
54428;SDS011;40337;52.978;6.310;2023-02-19T00:17:56;20.70;;;16.52;;
54428;SDS011;40337;52.978;6.310;2023-02-19T00:20:23;23.83;;;16.60;;
54428;SDS011;40337;52.978;6.310;2023-02-19T00:22:48;22.17;;;15.65;;
54428;SDS011;40337;52.978;6.310;2023-02-19T00:25:14;23.33;;;16.85;;
54428;SDS011;40337;52.978;6.310;2023-02-19T00:27:39;25.30;;;17.15;;
54428;SDS011;40337;52.978;6.310;2023-02-19T00:30:05;25.33;;;17.83;;
54428;SDS011;40337;52.978;6.310;2023-02-19T00:32:31;24.50;;;16.13;;
54428;SDS011;40337;52.978;6.310;2023-02-19T00:34:56;25.40;;;17.17;;
54428;SDS011;40337;52.978;6.310;2023-02-19T00:37:22;21.33;;;15.68;;
54428;SDS011;40337;52.978;6.310;2023-02-19T00:39:48;26.25;;;16.85;;
54428;SDS011;40337;52.978;6.310;2023-02-19T00:42:13;23.60;;;15.85;;
54428;SDS011;40337;52.978;6.310;2023-02-19T00:44:39;24.05;;;16.02;;
54428;SDS011;40337;52.978;6.310;2023-02-19T00:47:04;22.55;;;14.70;;
54428;SDS011;40337;52.978;6.310;2023-02-19T00:49:30;23.17;;;14.77;;
54428;SDS011;40337;52.978;6.310;2023-02-19T00:51:55;21.02;;;14.35;;
54428;SDS011;40337;52.978;6.310;2023-02-19T00:54:21;20.25;;;13.20;;
54428;SDS011;40337;52.978;6.310;2023-02-19T00:56:47;21.63;;;14.30;;
54428;SDS011;40337;52.978;6.310;2023-02-19T00:59:13;18.13;;;13.25;;
54428;SDS011;40337;52.978;6.310;2023-02-19T01:01:39;22.13;;;12.60;;
54428;SDS011;40337;52.978;6.310;2023-02-19T01:04:05;17.23;;;12.00;;
54428;SDS011;40337;52.978;6.310;2023-02-19T01:06:31;20.25;;;11.73;;
54428;SDS011;40337;52.978;6.310;2023-02-19T01:08:57;19.27;;;11.23;;
54428;SDS011;40337;52.978;6.310;2023-02-19T01:11:23;18.08;;;10.93;;
54428;SDS011;40337;52.978;6.310;2023-02-19T01:13:49;18.60;;;10.63;;
54428;SDS011;40337;52.978;6.310;2023-02-19T01:16:16;18.20;;;10.50;;
54428;SDS011;40337;52.978;6.310;2023-02-19T01:18:43;18.00;;;10.52;;
54428;SDS011;40337;52.978;6.310;2023-02-19T01:21:13;17.45;;;10.82;;
54428;SDS011;40337;52.978;6.310;2023-02-19T01:23:40;16.73;;;10.85;;
54428;SDS011;40337;52.978;6.310;2023-02-19T01:26:07;17.75;;;10.77;;
54428;SDS011;40337;52.978;6.310;2023-02-19T01:28:35;21.92;;;11.40;;
54428;SDS011;40337;52.978;6.310;2023-02-19T01:31:04;19.10;;;11.40;;
54428;SDS011;40337;52.978;6.310;2023-02-19T01:33:31;20.10;;;11.30;;
54428;SDS011;40337;52.978;6.310;2023-02-19T01:35:57;18.25;;;10.70;;
54428;SDS011;40337;52.978;6.310;2023-02-19T01:38:23;20.27;;;11.23;;
54428;SDS011;40337;52.978;6.310;2023-02-19T01:40:53;17.83;;;10.65;;
54428;SDS011;40337;52.978;6.310;2023-02-19T01:43:20;16.77;;;9.30;;
54428;SDS011;40337;52.978;6.310;2023-02-19T01:45:46;13.85;;;7.82;;
54428;SDS011;40337;52.978;6.310;2023-02-19T01:48:19;15.45;;;8.35;;
54428;SDS011;40337;52.978;6.310;2023-02-19T01:53:23;19.30;;;8.20;;
54428;SDS011;40337;52.978;6.310;2023-02-19T01:55:54;13.35;;;6.95;;
54428;SDS011;40337;52.978;6.310;2023-02-19T01:58:23;14.05;;;6.80;;
54428;SDS011;40337;52.978;6.310;2023-02-19T02:00:52;13.60;;;6.30;;
54428;SDS011;40337;52.978;6.310;2023-02-19T02:03:18;12.27;;;6.15;;
54428;SDS011;40337;52.978;6.310;2023-02-19T02:05:49;13.00;;;6.38;;
54428;SDS011;40337;52.978;6.310;2023-02-19T02:08:23;13.38;;;7.30;;
54428;SDS011;40337;52.978;6.310;2023-02-19T02:11:09;11.93;;;7.20;;
54428;SDS011;40337;52.978;6.310;2023-02-19T02:13:36;16.23;;;6.90;;
54428;SDS011;40337;52.978;6.310;2023-02-19T02:18:57;14.65;;;7.55;;
54428;SDS011;40337;52.978;6.310;2023-02-19T02:21:45;14.38;;;7.63;;
54428;SDS011;40337;52.978;6.310;2023-02-19T02:30:22;14.20;;;8.30;;
54428;SDS011;40337;52.978;6.310;2023-02-19T02:32:53;19.95;;;8.88;;
54428;SDS011;40337;52.978;6.310;2023-02-19T02:35:46;16.38;;;9.07;;
54428;SDS011;40337;52.978;6.310;2023-02-19T02:38:15;17.58;;;8.77;;
54428;SDS011;40337;52.978;6.310;2023-02-19T02:40:44;16.73;;;8.93;;
54428;SDS011;40337;52.978;6.310;2023-02-19T02:43:11;18.58;;;9.82;;
54428;SDS011;40337;52.978;6.310;2023-02-19T02:45:37;18.83;;;9.20;;
54428;SDS011;40337;52.978;6.310;2023-02-19T02:51:00;16.38;;;9.45;;
54428;SDS011;40337;52.978;6.310;2023-02-19T02:56:29;16.23;;;9.18;;
54428;SDS011;40337;52.978;6.310;2023-02-19T02:58:55;20.67;;;10.85;;
54428;SDS011;40337;52.978;6.310;2023-02-19T03:01:24;25.38;;;11.05;;
54428;SDS011;40337;52.978;6.310;2023-02-19T03:04:20;22.17;;;11.10;;
54428;SDS011;40337;52.978;6.310;2023-02-19T03:06:47;20.15;;;11.20;;
54428;SDS011;40337;52.978;6.310;2023-02-19T03:09:16;21.25;;;11.48;;
54428;SDS011;40337;52.978;6.310;2023-02-19T03:11:54;20.80;;;11.88;;
54428;SDS011;40337;52.978;6.310;2023-02-19T03:14:43;20.17;;;12.05;;
54428;SDS011;40337;52.978;6.310;2023-02-19T03:17:43;24.35;;;12.95;;
54428;SDS011;40337;52.978;6.310;2023-02-19T03:20:32;23.70;;;13.48;;
54428;SDS011;40337;52.978;6.310;2023-02-19T03:23:01;25.33;;;13.70;;
54428;SDS011;40337;52.978;6.310;2023-02-19T03:25:27;27.30;;;14.38;;
54428;SDS011;40337;52.978;6.310;2023-02-19T03:28:14;22.83;;;12.70;;
54428;SDS011;40337;52.978;6.310;2023-02-19T03:30:46;21.02;;;13.43;;
54428;SDS011;40337;52.978;6.310;2023-02-19T03:33:17;25.30;;;14.25;;
54428;SDS011;40337;52.978;6.310;2023-02-19T03:35:58;27.52;;;13.75;;
54428;SDS011;40337;52.978;6.310;2023-02-19T03:41:05;21.17;;;13.20;;
54428;SDS011;40337;52.978;6.310;2023-02-19T03:49:32;28.40;;;14.40;;
54428;SDS011;40337;52.978;6.310;2023-02-19T03:54:49;10.10;;;7.00;;
54428;SDS011;40337;52.978;6.310;2023-02-19T03:58:04;7.35;;;5.10;;
54428;SDS011;40337;52.978;6.310;2023-02-19T04:00:22;6.50;;;4.68;;
54428;SDS011;40337;52.978;6.310;2023-02-19T04:02:57;6.45;;;4.40;;
54428;SDS011;40337;52.978;6.310;2023-02-19T04:05:25;5.95;;;4.18;;
54428;SDS011;40337;52.978;6.310;2023-02-19T04:07:56;6.03;;;4.20;;
54428;SDS011;40337;52.978;6.310;2023-02-19T04:10:32;6.32;;;4.18;;
54428;SDS011;40337;52.978;6.310;2023-02-19T04:13:04;5.88;;;4.18;;
54428;SDS011;40337;52.978;6.310;2023-02-19T04:15:33;5.60;;;3.90;;
54428;SDS011;40337;52.978;6.310;2023-02-19T04:18:04;5.28;;;3.85;;
54428;SDS011;40337;52.978;6.310;2023-02-19T04:20:33;5.50;;;3.67;;
54428;SDS011;40337;52.978;6.310;2023-02-19T04:23:06;4.90;;;3.53;;
54428;SDS011;40337;52.978;6.310;2023-02-19T04:25:31;5.28;;;3.28;;
54428;SDS011;40337;52.978;6.310;2023-02-19T04:27:58;5.15;;;3.70;;
54428;SDS011;40337;52.978;6.310;2023-02-19T04:30:24;5.80;;;3.75;;
54428;SDS011;40337;52.978;6.310;2023-02-19T04:32:49;5.65;;;4.20;;
54428;SDS011;40337;52.978;6.310;2023-02-19T04:35:15;7.18;;;4.30;;
54428;SDS011;40337;52.978;6.310;2023-02-19T04:37:40;5.93;;;4.20;;
54428;SDS011;40337;52.978;6.310;2023-02-19T04:40:06;6.43;;;4.00;;
54428;SDS011;40337;52.978;6.310;2023-02-19T04:42:32;5.53;;;4.07;;
54428;SDS011;40337;52.978;6.310;2023-02-19T04:44:57;5.45;;;3.67;;
54428;SDS011;40337;52.978;6.310;2023-02-19T04:47:23;5.15;;;3.42;;
54428;SDS011;40337;52.978;6.310;2023-02-19T04:49:49;5.03;;;2.95;;
54428;SDS011;40337;52.978;6.310;2023-02-19T04:52:14;4.65;;;3.10;;
54428;SDS011;40337;52.978;6.310;2023-02-19T04:54:40;5.50;;;3.05;;
54428;SDS011;40337;52.978;6.310;2023-02-19T04:57:05;5.93;;;3.67;;
54428;SDS011;40337;52.978;6.310;2023-02-19T04:59:31;5.25;;;3.22;;
54428;SDS011;40337;52.978;6.310;2023-02-19T05:01:56;5.07;;;3.20;;
54428;SDS011;40337;52.978;6.310;2023-02-19T05:04:22;5.53;;;3.33;;
54428;SDS011;40337;52.978;6.310;2023-02-19T05:06:48;5.63;;;3.58;;
54428;SDS011;40337;52.978;6.310;2023-02-19T05:09:14;5.53;;;3.70;;
54428;SDS011;40337;52.978;6.310;2023-02-19T05:11:39;6.18;;;3.58;;
54428;SDS011;40337;52.978;6.310;2023-02-19T05:14:05;4.72;;;3.20;;
54428;SDS011;40337;52.978;6.310;2023-02-19T05:16:31;5.65;;;3.45;;
54428;SDS011;40337;52.978;6.310;2023-02-19T05:18:57;5.90;;;3.97;;
54428;SDS011;40337;52.978;6.310;2023-02-19T05:21:23;5.43;;;3.53;;
54428;SDS011;40337;52.978;6.310;2023-02-19T05:23:48;5.45;;;3.60;;
54428;SDS011;40337;52.978;6.310;2023-02-19T05:26:18;5.95;;;4.07;;
54428;SDS011;40337;52.978;6.310;2023-02-19T05:28:47;8.98;;;4.35;;
54428;SDS011;40337;52.978;6.310;2023-02-19T05:31:14;7.53;;;5.82;;
54428;SDS011;40337;52.978;6.310;2023-02-19T05:33:40;6.60;;;5.20;;
54428;SDS011;40337;52.978;6.310;2023-02-19T05:36:08;7.13;;;5.85;;
54428;SDS011;40337;52.978;6.310;2023-02-19T05:38:36;7.40;;;5.95;;
54428;SDS011;40337;52.978;6.310;2023-02-19T05:41:06;7.00;;;5.50;;
54428;SDS011;40337;52.978;6.310;2023-02-19T05:43:36;8.20;;;6.07;;
54428;SDS011;40337;52.978;6.310;2023-02-19T05:46:02;8.65;;;6.53;;
54428;SDS011;40337;52.978;6.310;2023-02-19T05:48:28;8.02;;;6.82;;
54428;SDS011;40337;52.978;6.310;2023-02-19T05:50:59;9.27;;;7.45;;
54428;SDS011;40337;52.978;6.310;2023-02-19T05:53:25;9.48;;;7.70;;
54428;SDS011;40337;52.978;6.310;2023-02-19T05:55:51;9.60;;;7.80;;
54428;SDS011;40337;52.978;6.310;2023-02-19T05:58:16;10.02;;;7.85;;
54428;SDS011;40337;52.978;6.310;2023-02-19T06:00:42;11.32;;;9.10;;
54428;SDS011;40337;52.978;6.310;2023-02-19T06:03:07;10.85;;;9.25;;
54428;SDS011;40337;52.978;6.310;2023-02-19T06:05:33;10.90;;;9.60;;
54428;SDS011;40337;52.978;6.310;2023-02-19T06:07:58;11.98;;;10.02;;
54428;SDS011;40337;52.978;6.310;2023-02-19T06:10:24;12.40;;;9.68;;
54428;SDS011;40337;52.978;6.310;2023-02-19T06:12:53;11.55;;;10.35;;
54428;SDS011;40337;52.978;6.310;2023-02-19T06:15:19;12.75;;;10.40;;
54428;SDS011;40337;52.978;6.310;2023-02-19T06:17:45;11.95;;;9.48;;
54428;SDS011;40337;52.978;6.310;2023-02-19T06:20:11;11.02;;;9.80;;
54428;SDS011;40337;52.978;6.310;2023-02-19T06:22:37;11.52;;;9.48;;
54428;SDS011;40337;52.978;6.310;2023-02-19T06:25:03;8.15;;;5.82;;
54428;SDS011;40337;52.978;6.310;2023-02-19T06:27:29;5.63;;;4.10;;
54428;SDS011;40337;52.978;6.310;2023-02-19T06:29:55;4.85;;;3.78;;
54428;SDS011;40337;52.978;6.310;2023-02-19T06:32:20;5.50;;;4.20;;
54428;SDS011;40337;52.978;6.310;2023-02-19T06:34:47;5.07;;;3.80;;
54428;SDS011;40337;52.978;6.310;2023-02-19T06:37:12;4.55;;;3.40;;
54428;SDS011;40337;52.978;6.310;2023-02-19T06:39:38;3.75;;;2.72;;
54428;SDS011;40337;52.978;6.310;2023-02-19T06:42:03;4.10;;;2.40;;
54428;SDS011;40337;52.978;6.310;2023-02-19T06:44:29;3.50;;;2.17;;
54428;SDS011;40337;52.978;6.310;2023-02-19T06:46:54;4.05;;;2.20;;
54428;SDS011;40337;52.978;6.310;2023-02-19T06:49:20;3.10;;;1.98;;
54428;SDS011;40337;52.978;6.310;2023-02-19T06:51:46;4.78;;;2.40;;
54428;SDS011;40337;52.978;6.310;2023-02-19T06:54:11;4.40;;;2.38;;
54428;SDS011;40337;52.978;6.310;2023-02-19T06:56:38;4.20;;;2.53;;
54428;SDS011;40337;52.978;6.310;2023-02-19T06:59:08;3.08;;;2.10;;
54428;SDS011;40337;52.978;6.310;2023-02-19T07:01:36;3.70;;;2.10;;
54428;SDS011;40337;52.978;6.310;2023-02-19T07:04:02;3.67;;;2.20;;
54428;SDS011;40337;52.978;6.310;2023-02-19T07:06:29;2.92;;;2.00;;
54428;SDS011;40337;52.978;6.310;2023-02-19T07:08:56;3.08;;;1.90;;
54428;SDS011;40337;52.978;6.310;2023-02-19T07:11:22;4.45;;;1.90;;
54428;SDS011;40337;52.978;6.310;2023-02-19T07:13:54;3.95;;;2.05;;
54428;SDS011;40337;52.978;6.310;2023-02-19T07:16:20;3.33;;;1.90;;
54428;SDS011;40337;52.978;6.310;2023-02-19T07:18:46;4.15;;;2.15;;
54428;SDS011;40337;52.978;6.310;2023-02-19T07:21:12;4.72;;;2.75;;
54428;SDS011;40337;52.978;6.310;2023-02-19T07:23:39;4.80;;;2.20;;
54428;SDS011;40337;52.978;6.310;2023-02-19T07:26:09;4.57;;;2.47;;
54428;SDS011;40337;52.978;6.310;2023-02-19T07:28:36;3.47;;;1.88;;
54428;SDS011;40337;52.978;6.310;2023-02-19T07:31:03;3.67;;;1.65;;
54428;SDS011;40337;52.978;6.310;2023-02-19T07:33:29;3.53;;;1.52;;
54428;SDS011;40337;52.978;6.310;2023-02-19T07:35:55;2.67;;;1.45;;
54428;SDS011;40337;52.978;6.310;2023-02-19T07:38:21;2.95;;;1.58;;
54428;SDS011;40337;52.978;6.310;2023-02-19T07:40:52;3.40;;;2.10;;
54428;SDS011;40337;52.978;6.310;2023-02-19T07:43:19;3.50;;;1.90;;
54428;SDS011;40337;52.978;6.310;2023-02-19T07:45:45;3.15;;;1.70;;
54428;SDS011;40337;52.978;6.310;2023-02-19T07:48:11;2.83;;;1.55;;
54428;SDS011;40337;52.978;6.310;2023-02-19T07:50:37;3.17;;;1.70;;
54428;SDS011;40337;52.978;6.310;2023-02-19T07:53:02;2.70;;;1.55;;
54428;SDS011;40337;52.978;6.310;2023-02-19T07:55:30;3.03;;;1.70;;
54428;SDS011;40337;52.978;6.310;2023-02-19T07:57:56;4.88;;;1.63;;
54428;SDS011;40337;52.978;6.310;2023-02-19T08:00:26;3.90;;;1.70;;
54428;SDS011;40337;52.978;6.310;2023-02-19T08:02:51;4.07;;;1.77;;
54428;SDS011;40337;52.978;6.310;2023-02-19T08:05:27;3.50;;;1.55;;
54428;SDS011;40337;52.978;6.310;2023-02-19T08:07:54;3.65;;;1.50;;
54428;SDS011;40337;52.978;6.310;2023-02-19T08:10:20;2.83;;;1.40;;
54428;SDS011;40337;52.978;6.310;2023-02-19T08:13:04;2.72;;;1.48;;
54428;SDS011;40337;52.978;6.310;2023-02-19T08:16:10;3.63;;;1.60;;
54428;SDS011;40337;52.978;6.310;2023-02-19T08:18:37;2.53;;;1.48;;
54428;SDS011;40337;52.978;6.310;2023-02-19T08:21:02;5.03;;;1.70;;
54428;SDS011;40337;52.978;6.310;2023-02-19T08:23:28;3.40;;;1.50;;
54428;SDS011;40337;52.978;6.310;2023-02-19T08:25:56;4.88;;;1.50;;
54428;SDS011;40337;52.978;6.310;2023-02-19T08:28:24;3.38;;;1.48;;
54428;SDS011;40337;52.978;6.310;2023-02-19T08:30:50;2.30;;;1.30;;
54428;SDS011;40337;52.978;6.310;2023-02-19T08:33:17;2.53;;;1.35;;
54428;SDS011;40337;52.978;6.310;2023-02-19T08:35:44;4.28;;;1.70;;
54428;SDS011;40337;52.978;6.310;2023-02-19T08:38:10;4.15;;;1.45;;
54428;SDS011;40337;52.978;6.310;2023-02-19T08:40:37;4.53;;;1.55;;
54428;SDS011;40337;52.978;6.310;2023-02-19T08:43:05;3.25;;;1.60;;
54428;SDS011;40337;52.978;6.310;2023-02-19T08:45:39;3.17;;;1.60;;
54428;SDS011;40337;52.978;6.310;2023-02-19T08:48:06;2.25;;;1.45;;
54428;SDS011;40337;52.978;6.310;2023-02-19T08:50:33;3.72;;;1.35;;
54428;SDS011;40337;52.978;6.310;2023-02-19T08:52:59;2.67;;;1.33;;
54428;SDS011;40337;52.978;6.310;2023-02-19T08:55:25;2.08;;;1.30;;
54428;SDS011;40337;52.978;6.310;2023-02-19T08:57:51;2.90;;;1.23;;
54428;SDS011;40337;52.978;6.310;2023-02-19T09:00:17;2.13;;;1.05;;
54428;SDS011;40337;52.978;6.310;2023-02-19T09:02:42;1.77;;;1.10;;
54428;SDS011;40337;52.978;6.310;2023-02-19T09:05:09;2.30;;;1.20;;
54428;SDS011;40337;52.978;6.310;2023-02-19T09:07:35;1.67;;;1.30;;
54428;SDS011;40337;52.978;6.310;2023-02-19T09:10:01;4.90;;;1.27;;
54428;SDS011;40337;52.978;6.310;2023-02-19T09:12:27;2.50;;;1.02;;
54428;SDS011;40337;52.978;6.310;2023-02-19T09:14:53;2.45;;;1.27;;
54428;SDS011;40337;52.978;6.310;2023-02-19T09:17:19;2.08;;;1.20;;
54428;SDS011;40337;52.978;6.310;2023-02-19T09:19:45;2.10;;;1.13;;
54428;SDS011;40337;52.978;6.310;2023-02-19T09:22:10;1.90;;;1.15;;
54428;SDS011;40337;52.978;6.310;2023-02-19T09:24:36;3.63;;;1.33;;
54428;SDS011;40337;52.978;6.310;2023-02-19T09:27:01;4.15;;;1.40;;
54428;SDS011;40337;52.978;6.310;2023-02-19T09:29:27;2.30;;;1.17;;
54428;SDS011;40337;52.978;6.310;2023-02-19T09:31:56;2.50;;;1.17;;
54428;SDS011;40337;52.978;6.310;2023-02-19T09:34:23;2.80;;;1.20;;
54428;SDS011;40337;52.978;6.310;2023-02-19T09:36:49;3.17;;;1.40;;
54428;SDS011;40337;52.978;6.310;2023-02-19T09:39:16;4.13;;;1.30;;
54428;SDS011;40337;52.978;6.310;2023-02-19T09:41:48;2.72;;;1.27;;
54428;SDS011;40337;52.978;6.310;2023-02-19T09:44:24;3.08;;;1.50;;
54428;SDS011;40337;52.978;6.310;2023-02-19T09:46:57;3.30;;;1.70;;
54428;SDS011;40337;52.978;6.310;2023-02-19T09:49:31;2.33;;;1.40;;
54428;SDS011;40337;52.978;6.310;2023-02-19T09:52:07;4.43;;;1.50;;
54428;SDS011;40337;52.978;6.310;2023-02-19T09:54:39;2.95;;;1.40;;
54428;SDS011;40337;52.978;6.310;2023-02-19T09:57:11;2.00;;;1.30;;
54428;SDS011;40337;52.978;6.310;2023-02-19T09:59:40;4.15;;;1.30;;
54428;SDS011;40337;52.978;6.310;2023-02-19T10:02:11;3.80;;;1.60;;
54428;SDS011;40337;52.978;6.310;2023-02-19T10:04:40;2.58;;;1.30;;
54428;SDS011;40337;52.978;6.310;2023-02-19T10:07:32;3.08;;;1.50;;
54428;SDS011;40337;52.978;6.310;2023-02-19T10:12:38;2.92;;;1.40;;
54428;SDS011;40337;52.978;6.310;2023-02-19T10:15:22;2.25;;;1.40;;
54428;SDS011;40337;52.978;6.310;2023-02-19T10:18:01;3.80;;;1.60;;
54428;SDS011;40337;52.978;6.310;2023-02-19T10:20:27;4.57;;;1.70;;
54428;SDS011;40337;52.978;6.310;2023-02-19T10:23:00;4.10;;;1.50;;
54428;SDS011;40337;52.978;6.310;2023-02-19T10:25:34;4.13;;;1.58;;
54428;SDS011;40337;52.978;6.310;2023-02-19T10:28:03;4.22;;;1.70;;
54428;SDS011;40337;52.978;6.310;2023-02-19T10:30:34;4.32;;;1.40;;
54428;SDS011;40337;52.978;6.310;2023-02-19T10:33:04;4.20;;;1.60;;
54428;SDS011;40337;52.978;6.310;2023-02-19T10:35:38;4.28;;;1.45;;
54428;SDS011;40337;52.978;6.310;2023-02-19T10:38:14;3.05;;;1.52;;
54428;SDS011;40337;52.978;6.310;2023-02-19T10:40:43;4.10;;;1.95;;
54428;SDS011;40337;52.978;6.310;2023-02-19T10:43:13;3.42;;;1.50;;
54428;SDS011;40337;52.978;6.310;2023-02-19T10:45:47;4.55;;;1.75;;
54428;SDS011;40337;52.978;6.310;2023-02-19T10:48:20;3.05;;;1.40;;
54428;SDS011;40337;52.978;6.310;2023-02-19T10:50:51;3.58;;;1.40;;
54428;SDS011;40337;52.978;6.310;2023-02-19T10:53:22;4.05;;;1.60;;
54428;SDS011;40337;52.978;6.310;2023-02-19T10:56:06;2.83;;;1.20;;
54428;SDS011;40337;52.978;6.310;2023-02-19T10:58:34;2.40;;;1.20;;
54428;SDS011;40337;52.978;6.310;2023-02-19T11:01:08;3.72;;;1.40;;
54428;SDS011;40337;52.978;6.310;2023-02-19T11:03:36;3.50;;;1.10;;
54428;SDS011;40337;52.978;6.310;2023-02-19T11:06:02;2.97;;;1.38;;
54428;SDS011;40337;52.978;6.310;2023-02-19T11:08:32;2.70;;;1.30;;
54428;SDS011;40337;52.978;6.310;2023-02-19T11:11:20;3.47;;;1.30;;
54428;SDS011;40337;52.978;6.310;2023-02-19T11:13:46;3.08;;;1.40;;
54428;SDS011;40337;52.978;6.310;2023-02-19T11:16:12;2.28;;;1.33;;
54428;SDS011;40337;52.978;6.310;2023-02-19T11:18:37;4.43;;;1.60;;
54428;SDS011;40337;52.978;6.310;2023-02-19T11:21:05;3.63;;;1.17;;
54428;SDS011;40337;52.978;6.310;2023-02-19T11:23:33;3.10;;;1.10;;
54428;SDS011;40337;52.978;6.310;2023-02-19T11:26:02;2.88;;;1.17;;
54428;SDS011;40337;52.978;6.310;2023-02-19T11:28:40;3.58;;;1.30;;
54428;SDS011;40337;52.978;6.310;2023-02-19T11:33:58;2.72;;;1.10;;
54428;SDS011;40337;52.978;6.310;2023-02-19T11:39:00;2.63;;;1.02;;
54428;SDS011;40337;52.978;6.310;2023-02-19T11:41:49;1.95;;;0.85;;
54428;SDS011;40337;52.978;6.310;2023-02-19T11:52:47;2.28;;;0.90;;
54428;SDS011;40337;52.978;6.310;2023-02-19T12:12:49;2.53;;;1.00;;
54428;SDS011;40337;52.978;6.310;2023-02-19T12:15:56;2.92;;;1.00;;
54428;SDS011;40337;52.978;6.310;2023-02-19T12:19:11;3.63;;;1.08;;
54428;SDS011;40337;52.978;6.310;2023-02-19T12:21:39;5.00;;;1.10;;
54428;SDS011;40337;52.978;6.310;2023-02-19T12:29:46;4.80;;;1.00;;
54428;SDS011;40337;52.978;6.310;2023-02-19T12:32:39;3.08;;;1.02;;
54428;SDS011;40337;52.978;6.310;2023-02-19T12:41:00;2.63;;;1.10;;
54428;SDS011;40337;52.978;6.310;2023-02-19T12:43:54;2.80;;;1.08;;
54428;SDS011;40337;52.978;6.310;2023-02-19T12:46:34;2.13;;;1.00;;
54428;SDS011;40337;52.978;6.310;2023-02-19T12:49:10;1.52;;;0.73;;
54428;SDS011;40337;52.978;6.310;2023-02-19T12:56:43;4.53;;;1.30;;
54428;SDS011;40337;52.978;6.310;2023-02-19T12:59:47;3.42;;;1.17;;
54428;SDS011;40337;52.978;6.310;2023-02-19T13:10:52;4.78;;;1.40;;
54428;SDS011;40337;52.978;6.310;2023-02-19T13:13:37;3.47;;;1.35;;
54428;SDS011;40337;52.978;6.310;2023-02-19T13:16:13;3.05;;;1.20;;
54428;SDS011;40337;52.978;6.310;2023-02-19T13:21:10;3.83;;;1.20;;
54428;SDS011;40337;52.978;6.310;2023-02-19T13:23:57;3.90;;;1.35;;
54428;SDS011;40337;52.978;6.310;2023-02-19T13:32:52;2.67;;;1.23;;
54428;SDS011;40337;52.978;6.310;2023-02-19T13:35:27;3.25;;;1.48;;
54428;SDS011;40337;52.978;6.310;2023-02-19T13:38:18;2.90;;;1.30;;
54428;SDS011;40337;52.978;6.310;2023-02-19T13:43:41;3.50;;;1.20;;
54428;SDS011;40337;52.978;6.310;2023-02-19T13:46:08;3.20;;;1.30;;
54428;SDS011;40337;52.978;6.310;2023-02-19T13:48:40;3.60;;;1.15;;
54428;SDS011;40337;52.978;6.310;2023-02-19T13:53:54;3.20;;;1.70;;
54428;SDS011;40337;52.978;6.310;2023-02-19T14:04:58;4.45;;;1.38;;
54428;SDS011;40337;52.978;6.310;2023-02-19T14:12:16;10.38;;;6.13;;
54428;SDS011;40337;52.978;6.310;2023-02-19T14:14:54;6.28;;;3.15;;
54428;SDS011;40337;52.978;6.310;2023-02-19T14:25:20;4.45;;;1.80;;
54428;SDS011;40337;52.978;6.310;2023-02-19T14:28:01;5.45;;;2.78;;
54428;SDS011;40337;52.978;6.310;2023-02-19T14:30:28;3.88;;;1.80;;
54428;SDS011;40337;52.978;6.310;2023-02-19T14:32:55;6.55;;;2.15;;
54428;SDS011;40337;52.978;6.310;2023-02-19T14:35:24;4.43;;;1.90;;
54428;SDS011;40337;52.978;6.310;2023-02-19T14:37:54;5.82;;;1.90;;
54428;SDS011;40337;52.978;6.310;2023-02-19T14:40:30;3.70;;;1.55;;
54428;SDS011;40337;52.978;6.310;2023-02-19T14:43:01;4.60;;;1.40;;
54428;SDS011;40337;52.978;6.310;2023-02-19T14:45:29;2.90;;;1.27;;
54428;SDS011;40337;52.978;6.310;2023-02-19T14:48:03;4.20;;;1.35;;
54428;SDS011;40337;52.978;6.310;2023-02-19T14:50:30;5.50;;;1.73;;
54428;SDS011;40337;52.978;6.310;2023-02-19T14:52:57;4.75;;;2.80;;
54428;SDS011;40337;52.978;6.310;2023-02-19T14:55:28;3.20;;;1.25;;
54428;SDS011;40337;52.978;6.310;2023-02-19T14:58:00;4.55;;;1.60;;
54428;SDS011;40337;52.978;6.310;2023-02-19T15:00:32;5.47;;;1.40;;
54428;SDS011;40337;52.978;6.310;2023-02-19T15:03:01;4.72;;;1.30;;
54428;SDS011;40337;52.978;6.310;2023-02-19T15:05:29;4.75;;;1.48;;
54428;SDS011;40337;52.978;6.310;2023-02-19T15:07:57;5.15;;;1.50;;
54428;SDS011;40337;52.978;6.310;2023-02-19T15:10:26;5.00;;;1.70;;
54428;SDS011;40337;52.978;6.310;2023-02-19T15:12:58;4.30;;;1.50;;
54428;SDS011;40337;52.978;6.310;2023-02-19T15:15:28;4.70;;;1.75;;
54428;SDS011;40337;52.978;6.310;2023-02-19T15:17:56;4.07;;;1.50;;
54428;SDS011;40337;52.978;6.310;2023-02-19T15:20:25;5.28;;;1.50;;
54428;SDS011;40337;52.978;6.310;2023-02-19T15:22:53;4.93;;;1.40;;
54428;SDS011;40337;52.978;6.310;2023-02-19T15:25:20;6.15;;;1.70;;
54428;SDS011;40337;52.978;6.310;2023-02-19T15:27:48;5.55;;;1.60;;
54428;SDS011;40337;52.978;6.310;2023-02-19T15:32:49;4.45;;;1.70;;
54428;SDS011;40337;52.978;6.310;2023-02-19T15:35:19;5.30;;;1.83;;
54428;SDS011;40337;52.978;6.310;2023-02-19T15:37:47;4.22;;;1.70;;
54428;SDS011;40337;52.978;6.310;2023-02-19T15:40:14;4.88;;;1.40;;
54428;SDS011;40337;52.978;6.310;2023-02-19T15:42:39;4.70;;;1.65;;
54428;SDS011;40337;52.978;6.310;2023-02-19T15:47:46;6.93;;;2.13;;
54428;SDS011;40337;52.978;6.310;2023-02-19T15:55:51;9.40;;;2.17;;
54428;SDS011;40337;52.978;6.310;2023-02-19T15:58:32;6.90;;;1.70;;
54428;SDS011;40337;52.978;6.310;2023-02-19T16:01:13;6.07;;;1.40;;
54428;SDS011;40337;52.978;6.310;2023-02-19T16:03:42;6.15;;;1.60;;
54428;SDS011;40337;52.978;6.310;2023-02-19T16:06:11;6.43;;;3.17;;
54428;SDS011;40337;52.978;6.310;2023-02-19T16:08:42;17.83;;;7.90;;
54428;SDS011;40337;52.978;6.310;2023-02-19T16:13:47;3.88;;;1.60;;
54428;SDS011;40337;52.978;6.310;2023-02-19T16:16:15;11.85;;;3.65;;
54428;SDS011;40337;52.978;6.310;2023-02-19T16:18:54;6.85;;;1.90;;
54428;SDS011;40337;52.978;6.310;2023-02-19T16:21:21;8.30;;;2.50;;
54428;SDS011;40337;52.978;6.310;2023-02-19T16:23:50;13.35;;;6.28;;
54428;SDS011;40337;52.978;6.310;2023-02-19T16:26:27;20.23;;;8.82;;
54428;SDS011;40337;52.978;6.310;2023-02-19T16:28:53;19.63;;;8.70;;
54428;SDS011;40337;52.978;6.310;2023-02-19T16:31:20;13.93;;;6.45;;
54428;SDS011;40337;52.978;6.310;2023-02-19T16:33:48;6.05;;;2.58;;
54428;SDS011;40337;52.978;6.310;2023-02-19T16:36:15;12.93;;;5.25;;
54428;SDS011;40337;52.978;6.310;2023-02-19T16:41:51;13.48;;;5.82;;
54428;SDS011;40337;52.978;6.310;2023-02-19T16:46:56;6.65;;;2.10;;
54428;SDS011;40337;52.978;6.310;2023-02-19T16:49:26;5.60;;;1.95;;
54428;SDS011;40337;52.978;6.310;2023-02-19T16:51:51;8.15;;;3.35;;
54428;SDS011;40337;52.978;6.310;2023-02-19T16:54:18;9.70;;;4.10;;
54428;SDS011;40337;52.978;6.310;2023-02-19T16:56:44;7.75;;;3.25;;
54428;SDS011;40337;52.978;6.310;2023-02-19T16:59:09;9.90;;;3.83;;
54428;SDS011;40337;52.978;6.310;2023-02-19T17:01:35;9.02;;;2.58;;
54428;SDS011;40337;52.978;6.310;2023-02-19T17:04:02;8.40;;;3.20;;
54428;SDS011;40337;52.978;6.310;2023-02-19T17:06:29;11.55;;;4.80;;
54428;SDS011;40337;52.978;6.310;2023-02-19T17:08:57;10.80;;;4.38;;
54428;SDS011;40337;52.978;6.310;2023-02-19T17:11:23;6.82;;;2.33;;
54428;SDS011;40337;52.978;6.310;2023-02-19T17:13:48;12.43;;;3.50;;
54428;SDS011;40337;52.978;6.310;2023-02-19T17:16:18;8.25;;;3.60;;
54428;SDS011;40337;52.978;6.310;2023-02-19T17:18:46;5.72;;;2.20;;